sensor_id;sensor_type;location;lat;lon;timestamp;P1;durP1;ratioP1;P2;durP2;ratioP2
16480;SDS011;44634;54.110;12.138;2022-09-30T00:01:18;4.03;;;3.73;;
16480;SDS011;44634;54.110;12.138;2022-09-30T00:03:46;3.67;;;3.47;;
16480;SDS011;44634;54.110;12.138;2022-09-30T00:06:14;3.50;;;3.40;;
16480;SDS011;44634;54.110;12.138;2022-09-30T00:08:42;4.13;;;3.90;;
16480;SDS011;44634;54.110;12.138;2022-09-30T00:11:12;4.40;;;4.03;;
16480;SDS011;44634;54.110;12.138;2022-09-30T00:13:41;4.97;;;4.37;;
16480;SDS011;44634;54.110;12.138;2022-09-30T00:16:11;4.63;;;4.33;;
16480;SDS011;44634;54.110;12.138;2022-09-30T00:18:40;4.30;;;4.10;;
16480;SDS011;44634;54.110;12.138;2022-09-30T00:21:10;4.80;;;4.50;;
16480;SDS011;44634;54.110;12.138;2022-09-30T00:23:39;4.60;;;4.30;;
16480;SDS011;44634;54.110;12.138;2022-09-30T00:26:07;5.00;;;4.60;;
16480;SDS011;44634;54.110;12.138;2022-09-30T00:28:40;4.40;;;4.07;;
16480;SDS011;44634;54.110;12.138;2022-09-30T00:31:10;4.67;;;4.27;;
16480;SDS011;44634;54.110;12.138;2022-09-30T00:33:40;5.57;;;4.53;;
16480;SDS011;44634;54.110;12.138;2022-09-30T00:36:09;4.80;;;4.50;;
16480;SDS011;44634;54.110;12.138;2022-09-30T00:38:37;5.17;;;4.77;;
16480;SDS011;44634;54.110;12.138;2022-09-30T00:41:05;4.83;;;4.43;;
16480;SDS011;44634;54.110;12.138;2022-09-30T00:43:41;4.40;;;4.20;;
16480;SDS011;44634;54.110;12.138;2022-09-30T00:46:15;4.73;;;4.33;;
16480;SDS011;44634;54.110;12.138;2022-09-30T00:48:45;5.00;;;4.70;;
16480;SDS011;44634;54.110;12.138;2022-09-30T00:51:20;4.30;;;4.00;;
16480;SDS011;44634;54.110;12.138;2022-09-30T00:53:58;4.80;;;4.50;;
16480;SDS011;44634;54.110;12.138;2022-09-30T00:56:28;4.47;;;4.17;;
16480;SDS011;44634;54.110;12.138;2022-09-30T00:59:02;4.30;;;4.00;;
16480;SDS011;44634;54.110;12.138;2022-09-30T01:01:34;4.20;;;4.00;;
16480;SDS011;44634;54.110;12.138;2022-09-30T01:04:05;4.63;;;4.43;;
16480;SDS011;44634;54.110;12.138;2022-09-30T01:06:37;4.63;;;4.33;;
16480;SDS011;44634;54.110;12.138;2022-09-30T01:09:05;4.20;;;3.90;;
16480;SDS011;44634;54.110;12.138;2022-09-30T01:11:34;5.00;;;4.50;;
16480;SDS011;44634;54.110;12.138;2022-09-30T01:14:04;4.27;;;3.97;;
16480;SDS011;44634;54.110;12.138;2022-09-30T01:16:38;4.70;;;4.40;;
16480;SDS011;44634;54.110;12.138;2022-09-30T01:19:21;4.40;;;4.10;;
16480;SDS011;44634;54.110;12.138;2022-09-30T01:22:02;4.63;;;4.30;;
16480;SDS011;44634;54.110;12.138;2022-09-30T01:24:55;4.83;;;4.43;;
16480;SDS011;44634;54.110;12.138;2022-09-30T01:27:55;4.37;;;4.07;;
16480;SDS011;44634;54.110;12.138;2022-09-30T01:30:44;4.60;;;4.30;;
16480;SDS011;44634;54.110;12.138;2022-09-30T01:33:24;4.53;;;4.23;;
16480;SDS011;44634;54.110;12.138;2022-09-30T01:39:08;4.33;;;4.10;;
16480;SDS011;44634;54.110;12.138;2022-09-30T01:41:48;3.90;;;3.70;;
16480;SDS011;44634;54.110;12.138;2022-09-30T01:44:22;4.37;;;3.97;;
16480;SDS011;44634;54.110;12.138;2022-09-30T01:47:02;4.30;;;4.10;;
16480;SDS011;44634;54.110;12.138;2022-09-30T01:49:40;4.30;;;4.10;;
16480;SDS011;44634;54.110;12.138;2022-09-30T01:52:14;4.27;;;4.03;;
16480;SDS011;44634;54.110;12.138;2022-09-30T01:54:45;4.20;;;3.97;;
16480;SDS011;44634;54.110;12.138;2022-09-30T01:57:20;4.43;;;4.03;;
16480;SDS011;44634;54.110;12.138;2022-09-30T01:59:53;4.30;;;4.00;;
16480;SDS011;44634;54.110;12.138;2022-09-30T02:02:27;4.57;;;4.27;;
16480;SDS011;44634;54.110;12.138;2022-09-30T02:04:58;3.77;;;3.57;;
16480;SDS011;44634;54.110;12.138;2022-09-30T02:07:30;4.73;;;4.23;;
16480;SDS011;44634;54.110;12.138;2022-09-30T02:10:04;4.93;;;4.63;;
16480;SDS011;44634;54.110;12.138;2022-09-30T02:12:40;4.83;;;4.53;;
16480;SDS011;44634;54.110;12.138;2022-09-30T02:15:14;10.57;;;4.97;;
16480;SDS011;44634;54.110;12.138;2022-09-30T02:17:46;4.70;;;4.40;;
16480;SDS011;44634;54.110;12.138;2022-09-30T02:20:19;5.40;;;5.00;;
16480;SDS011;44634;54.110;12.138;2022-09-30T02:22:51;5.40;;;5.03;;
16480;SDS011;44634;54.110;12.138;2022-09-30T02:25:25;5.97;;;5.37;;
16480;SDS011;44634;54.110;12.138;2022-09-30T02:27:57;5.43;;;5.03;;
16480;SDS011;44634;54.110;12.138;2022-09-30T02:30:28;5.77;;;5.37;;
16480;SDS011;44634;54.110;12.138;2022-09-30T02:32:58;6.13;;;5.63;;
16480;SDS011;44634;54.110;12.138;2022-09-30T02:35:29;5.83;;;5.47;;
16480;SDS011;44634;54.110;12.138;2022-09-30T02:38:02;5.60;;;5.20;;
16480;SDS011;44634;54.110;12.138;2022-09-30T02:40:34;6.07;;;5.57;;
16480;SDS011;44634;54.110;12.138;2022-09-30T02:43:08;5.63;;;5.30;;
16480;SDS011;44634;54.110;12.138;2022-09-30T02:45:38;6.23;;;5.77;;
16480;SDS011;44634;54.110;12.138;2022-09-30T02:48:17;5.70;;;5.30;;
16480;SDS011;44634;54.110;12.138;2022-09-30T02:50:53;6.67;;;6.07;;
16480;SDS011;44634;54.110;12.138;2022-09-30T02:53:28;6.60;;;6.00;;
16480;SDS011;44634;54.110;12.138;2022-09-30T02:56:16;5.77;;;5.37;;
16480;SDS011;44634;54.110;12.138;2022-09-30T02:58:51;5.90;;;5.40;;
16480;SDS011;44634;54.110;12.138;2022-09-30T03:01:22;5.90;;;5.50;;
16480;SDS011;44634;54.110;12.138;2022-09-30T03:03:52;6.23;;;5.63;;
16480;SDS011;44634;54.110;12.138;2022-09-30T03:06:23;5.63;;;5.33;;
16480;SDS011;44634;54.110;12.138;2022-09-30T03:08:51;5.87;;;5.43;;
16480;SDS011;44634;54.110;12.138;2022-09-30T03:11:20;6.17;;;5.67;;
16480;SDS011;44634;54.110;12.138;2022-09-30T03:13:55;6.00;;;5.53;;
16480;SDS011;44634;54.110;12.138;2022-09-30T03:16:40;6.20;;;5.80;;
16480;SDS011;44634;54.110;12.138;2022-09-30T03:19:28;6.27;;;5.70;;
16480;SDS011;44634;54.110;12.138;2022-09-30T03:22:10;7.13;;;6.53;;
16480;SDS011;44634;54.110;12.138;2022-09-30T03:24:57;6.23;;;5.73;;
16480;SDS011;44634;54.110;12.138;2022-09-30T03:27:38;7.20;;;6.53;;
16480;SDS011;44634;54.110;12.138;2022-09-30T03:30:17;7.03;;;6.40;;
16480;SDS011;44634;54.110;12.138;2022-09-30T03:32:53;7.00;;;6.40;;
16480;SDS011;44634;54.110;12.138;2022-09-30T03:35:36;7.30;;;6.70;;
16480;SDS011;44634;54.110;12.138;2022-09-30T03:38:12;7.30;;;6.60;;
16480;SDS011;44634;54.110;12.138;2022-09-30T03:40:51;7.33;;;6.73;;
16480;SDS011;44634;54.110;12.138;2022-09-30T03:43:30;9.40;;;8.43;;
16480;SDS011;44634;54.110;12.138;2022-09-30T03:46:02;9.63;;;8.00;;
16480;SDS011;44634;54.110;12.138;2022-09-30T03:48:36;7.27;;;6.67;;
16480;SDS011;44634;54.110;12.138;2022-09-30T03:51:07;6.73;;;6.33;;
16480;SDS011;44634;54.110;12.138;2022-09-30T03:53:38;6.90;;;6.30;;
16480;SDS011;44634;54.110;12.138;2022-09-30T03:56:07;6.57;;;6.17;;
16480;SDS011;44634;54.110;12.138;2022-09-30T03:58:35;6.50;;;6.00;;
16480;SDS011;44634;54.110;12.138;2022-09-30T04:01:06;7.10;;;6.60;;
16480;SDS011;44634;54.110;12.138;2022-09-30T04:03:34;6.80;;;6.30;;
16480;SDS011;44634;54.110;12.138;2022-09-30T04:06:02;7.20;;;6.50;;
16480;SDS011;44634;54.110;12.138;2022-09-30T04:08:31;7.03;;;6.47;;
16480;SDS011;44634;54.110;12.138;2022-09-30T04:10:59;6.67;;;6.07;;
16480;SDS011;44634;54.110;12.138;2022-09-30T04:13:26;6.63;;;6.23;;
16480;SDS011;44634;54.110;12.138;2022-09-30T04:15:54;6.03;;;5.63;;
16480;SDS011;44634;54.110;12.138;2022-09-30T04:18:22;6.10;;;5.70;;
16480;SDS011;44634;54.110;12.138;2022-09-30T04:20:50;6.90;;;6.40;;
16480;SDS011;44634;54.110;12.138;2022-09-30T04:23:18;7.77;;;6.97;;
16480;SDS011;44634;54.110;12.138;2022-09-30T04:25:51;7.47;;;6.97;;
16480;SDS011;44634;54.110;12.138;2022-09-30T04:28:19;7.40;;;6.50;;
16480;SDS011;44634;54.110;12.138;2022-09-30T04:30:47;7.50;;;6.77;;
16480;SDS011;44634;54.110;12.138;2022-09-30T04:33:15;7.43;;;6.83;;
16480;SDS011;44634;54.110;12.138;2022-09-30T04:35:42;7.43;;;6.87;;
16480;SDS011;44634;54.110;12.138;2022-09-30T04:38:10;7.70;;;7.10;;
16480;SDS011;44634;54.110;12.138;2022-09-30T04:40:38;8.03;;;6.93;;
16480;SDS011;44634;54.110;12.138;2022-09-30T04:43:07;7.00;;;6.30;;
16480;SDS011;44634;54.110;12.138;2022-09-30T04:45:35;7.10;;;6.40;;
16480;SDS011;44634;54.110;12.138;2022-09-30T04:48:04;6.80;;;6.30;;
16480;SDS011;44634;54.110;12.138;2022-09-30T04:50:32;6.57;;;6.00;;
16480;SDS011;44634;54.110;12.138;2022-09-30T04:52:59;6.60;;;6.20;;
16480;SDS011;44634;54.110;12.138;2022-09-30T04:55:29;7.30;;;6.70;;
16480;SDS011;44634;54.110;12.138;2022-09-30T04:57:59;6.83;;;6.33;;
16480;SDS011;44634;54.110;12.138;2022-09-30T05:00:28;7.23;;;6.63;;
16480;SDS011;44634;54.110;12.138;2022-09-30T05:02:57;7.20;;;6.50;;
16480;SDS011;44634;54.110;12.138;2022-09-30T05:05:24;8.13;;;7.53;;
16480;SDS011;44634;54.110;12.138;2022-09-30T05:07:52;7.67;;;7.00;;
16480;SDS011;44634;54.110;12.138;2022-09-30T05:10:20;8.53;;;7.73;;
16480;SDS011;44634;54.110;12.138;2022-09-30T05:12:49;8.00;;;7.30;;
16480;SDS011;44634;54.110;12.138;2022-09-30T05:15:19;8.90;;;8.07;;
16480;SDS011;44634;54.110;12.138;2022-09-30T05:17:48;9.53;;;8.73;;
16480;SDS011;44634;54.110;12.138;2022-09-30T05:20:16;9.63;;;8.63;;
16480;SDS011;44634;54.110;12.138;2022-09-30T05:22:46;10.03;;;9.13;;
16480;SDS011;44634;54.110;12.138;2022-09-30T05:25:14;10.57;;;9.57;;
16480;SDS011;44634;54.110;12.138;2022-09-30T05:27:42;10.37;;;9.37;;
16480;SDS011;44634;54.110;12.138;2022-09-30T05:30:10;10.33;;;9.23;;
16480;SDS011;44634;54.110;12.138;2022-09-30T05:32:38;11.30;;;10.13;;
16480;SDS011;44634;54.110;12.138;2022-09-30T05:35:07;10.10;;;9.10;;
16480;SDS011;44634;54.110;12.138;2022-09-30T05:37:37;11.53;;;10.33;;
16480;SDS011;44634;54.110;12.138;2022-09-30T05:40:05;11.17;;;10.17;;
16480;SDS011;44634;54.110;12.138;2022-09-30T05:42:34;11.30;;;10.30;;
16480;SDS011;44634;54.110;12.138;2022-09-30T05:45:02;12.20;;;10.80;;
16480;SDS011;44634;54.110;12.138;2022-09-30T05:47:30;11.43;;;10.33;;
16480;SDS011;44634;54.110;12.138;2022-09-30T05:49:58;12.07;;;10.97;;
16480;SDS011;44634;54.110;12.138;2022-09-30T05:52:27;12.37;;;11.20;;
16480;SDS011;44634;54.110;12.138;2022-09-30T05:54:55;14.07;;;9.83;;
16480;SDS011;44634;54.110;12.138;2022-09-30T05:57:26;10.63;;;9.63;;
16480;SDS011;44634;54.110;12.138;2022-09-30T05:59:54;12.17;;;11.03;;
16480;SDS011;44634;54.110;12.138;2022-09-30T06:02:23;11.97;;;10.83;;
16480;SDS011;44634;54.110;12.138;2022-09-30T06:04:51;11.70;;;10.50;;
16480;SDS011;44634;54.110;12.138;2022-09-30T06:07:19;12.27;;;10.93;;
16480;SDS011;44634;54.110;12.138;2022-09-30T06:09:48;11.93;;;10.83;;
16480;SDS011;44634;54.110;12.138;2022-09-30T06:12:16;12.43;;;11.27;;
16480;SDS011;44634;54.110;12.138;2022-09-30T06:14:43;11.90;;;10.70;;
16480;SDS011;44634;54.110;12.138;2022-09-30T06:17:11;14.00;;;10.83;;
16480;SDS011;44634;54.110;12.138;2022-09-30T06:19:39;13.17;;;11.87;;
16480;SDS011;44634;54.110;12.138;2022-09-30T06:22:06;11.73;;;10.63;;
16480;SDS011;44634;54.110;12.138;2022-09-30T06:24:34;15.73;;;11.20;;
16480;SDS011;44634;54.110;12.138;2022-09-30T06:27:03;11.60;;;10.40;;
16480;SDS011;44634;54.110;12.138;2022-09-30T06:29:31;12.27;;;11.17;;
16480;SDS011;44634;54.110;12.138;2022-09-30T06:31:59;14.73;;;12.23;;
16480;SDS011;44634;54.110;12.138;2022-09-30T06:34:27;15.67;;;13.97;;
16480;SDS011;44634;54.110;12.138;2022-09-30T06:36:55;13.23;;;11.87;;
16480;SDS011;44634;54.110;12.138;2022-09-30T06:39:23;13.60;;;12.17;;
16480;SDS011;44634;54.110;12.138;2022-09-30T06:41:52;12.63;;;11.40;;
16480;SDS011;44634;54.110;12.138;2022-09-30T06:44:22;12.87;;;11.57;;
16480;SDS011;44634;54.110;12.138;2022-09-30T06:46:51;13.20;;;11.90;;
16480;SDS011;44634;54.110;12.138;2022-09-30T06:49:20;11.97;;;10.87;;
16480;SDS011;44634;54.110;12.138;2022-09-30T06:51:49;12.27;;;10.83;;
16480;SDS011;44634;54.110;12.138;2022-09-30T06:54:17;13.57;;;12.20;;
16480;SDS011;44634;54.110;12.138;2022-09-30T06:56:45;12.40;;;11.10;;
16480;SDS011;44634;54.110;12.138;2022-09-30T06:59:14;14.57;;;11.70;;
16480;SDS011;44634;54.110;12.138;2022-09-30T07:01:44;12.93;;;11.67;;
16480;SDS011;44634;54.110;12.138;2022-09-30T07:04:12;13.27;;;12.00;;
16480;SDS011;44634;54.110;12.138;2022-09-30T07:06:40;12.10;;;10.83;;
16480;SDS011;44634;54.110;12.138;2022-09-30T07:09:08;12.53;;;11.33;;
16480;SDS011;44634;54.110;12.138;2022-09-30T07:11:37;12.13;;;10.93;;
16480;SDS011;44634;54.110;12.138;2022-09-30T07:14:05;11.30;;;10.20;;
16480;SDS011;44634;54.110;12.138;2022-09-30T07:16:34;10.77;;;9.70;;
16480;SDS011;44634;54.110;12.138;2022-09-30T07:19:03;12.17;;;10.93;;
16480;SDS011;44634;54.110;12.138;2022-09-30T07:21:35;11.23;;;10.23;;
16480;SDS011;44634;54.110;12.138;2022-09-30T07:24:03;11.43;;;10.43;;
16480;SDS011;44634;54.110;12.138;2022-09-30T07:26:31;11.60;;;10.43;;
16480;SDS011;44634;54.110;12.138;2022-09-30T07:28:59;13.83;;;12.47;;
16480;SDS011;44634;54.110;12.138;2022-09-30T07:31:27;13.43;;;12.03;;
16480;SDS011;44634;54.110;12.138;2022-09-30T07:34:00;13.70;;;11.07;;
16480;SDS011;44634;54.110;12.138;2022-09-30T07:36:30;13.27;;;11.87;;
16480;SDS011;44634;54.110;12.138;2022-09-30T07:38:59;13.13;;;11.83;;
16480;SDS011;44634;54.110;12.138;2022-09-30T07:41:31;12.47;;;11.23;;
16480;SDS011;44634;54.110;12.138;2022-09-30T07:44:01;13.03;;;11.80;;
16480;SDS011;44634;54.110;12.138;2022-09-30T07:46:31;13.30;;;11.90;;
16480;SDS011;44634;54.110;12.138;2022-09-30T07:49:02;12.80;;;11.43;;
16480;SDS011;44634;54.110;12.138;2022-09-30T07:51:33;13.37;;;11.97;;
16480;SDS011;44634;54.110;12.138;2022-09-30T07:54:04;12.87;;;11.67;;
16480;SDS011;44634;54.110;12.138;2022-09-30T07:56:33;12.43;;;10.93;;
16480;SDS011;44634;54.110;12.138;2022-09-30T07:59:24;13.10;;;11.53;;
16480;SDS011;44634;54.110;12.138;2022-09-30T08:01:52;13.17;;;11.77;;
16480;SDS011;44634;54.110;12.138;2022-09-30T08:04:21;12.93;;;11.67;;
16480;SDS011;44634;54.110;12.138;2022-09-30T08:06:52;13.33;;;12.07;;
16480;SDS011;44634;54.110;12.138;2022-09-30T08:09:22;12.90;;;11.63;;
16480;SDS011;44634;54.110;12.138;2022-09-30T08:11:53;13.27;;;11.90;;
16480;SDS011;44634;54.110;12.138;2022-09-30T08:14:22;12.20;;;11.10;;
16480;SDS011;44634;54.110;12.138;2022-09-30T08:16:51;11.93;;;10.67;;
16480;SDS011;44634;54.110;12.138;2022-09-30T08:19:21;12.77;;;11.47;;
16480;SDS011;44634;54.110;12.138;2022-09-30T08:21:52;11.63;;;10.53;;
16480;SDS011;44634;54.110;12.138;2022-09-30T08:24:20;12.17;;;10.43;;
16480;SDS011;44634;54.110;12.138;2022-09-30T08:26:49;11.73;;;10.37;;
16480;SDS011;44634;54.110;12.138;2022-09-30T08:29:17;11.43;;;10.43;;
16480;SDS011;44634;54.110;12.138;2022-09-30T08:32:05;11.53;;;10.33;;
16480;SDS011;44634;54.110;12.138;2022-09-30T08:34:33;11.00;;;10.00;;
16480;SDS011;44634;54.110;12.138;2022-09-30T08:37:02;9.20;;;8.43;;
16480;SDS011;44634;54.110;12.138;2022-09-30T08:39:34;9.77;;;8.87;;
16480;SDS011;44634;54.110;12.138;2022-09-30T08:42:14;9.83;;;8.60;;
16480;SDS011;44634;54.110;12.138;2022-09-30T08:45:07;10.43;;;8.60;;
16480;SDS011;44634;54.110;12.138;2022-09-30T08:47:45;8.80;;;8.00;;
16480;SDS011;44634;54.110;12.138;2022-09-30T08:50:21;8.40;;;7.63;;
16480;SDS011;44634;54.110;12.138;2022-09-30T08:52:57;8.17;;;7.47;;
16480;SDS011;44634;54.110;12.138;2022-09-30T08:55:28;8.40;;;7.70;;
16480;SDS011;44634;54.110;12.138;2022-09-30T08:58:04;9.17;;;8.30;;
16480;SDS011;44634;54.110;12.138;2022-09-30T09:00:37;8.67;;;7.97;;
16480;SDS011;44634;54.110;12.138;2022-09-30T09:03:08;8.33;;;7.73;;
16480;SDS011;44634;54.110;12.138;2022-09-30T09:05:44;8.60;;;7.93;;
16480;SDS011;44634;54.110;12.138;2022-09-30T09:08:23;7.43;;;6.73;;
16480;SDS011;44634;54.110;12.138;2022-09-30T09:11:00;7.03;;;6.40;;
16480;SDS011;44634;54.110;12.138;2022-09-30T09:13:40;7.00;;;6.50;;
16480;SDS011;44634;54.110;12.138;2022-09-30T09:16:16;7.13;;;6.63;;
16480;SDS011;44634;54.110;12.138;2022-09-30T09:18:52;6.43;;;5.93;;
16480;SDS011;44634;54.110;12.138;2022-09-30T09:21:35;6.23;;;5.80;;
16480;SDS011;44634;54.110;12.138;2022-09-30T09:24:13;6.40;;;5.80;;
16480;SDS011;44634;54.110;12.138;2022-09-30T09:26:42;6.37;;;5.93;;
16480;SDS011;44634;54.110;12.138;2022-09-30T09:29:17;5.50;;;5.20;;
16480;SDS011;44634;54.110;12.138;2022-09-30T09:31:52;6.03;;;5.50;;
16480;SDS011;44634;54.110;12.138;2022-09-30T09:34:22;5.77;;;5.37;;
16480;SDS011;44634;54.110;12.138;2022-09-30T09:36:54;5.70;;;5.20;;
16480;SDS011;44634;54.110;12.138;2022-09-30T09:39:43;5.43;;;5.13;;
16480;SDS011;44634;54.110;12.138;2022-09-30T09:42:32;5.83;;;5.43;;
16480;SDS011;44634;54.110;12.138;2022-09-30T09:45:10;5.80;;;5.40;;
16480;SDS011;44634;54.110;12.138;2022-09-30T09:47:48;6.40;;;5.80;;
16480;SDS011;44634;54.110;12.138;2022-09-30T09:50:18;6.20;;;5.80;;
16480;SDS011;44634;54.110;12.138;2022-09-30T09:53:04;6.50;;;6.10;;
16480;SDS011;44634;54.110;12.138;2022-09-30T09:55:46;5.70;;;5.30;;
16480;SDS011;44634;54.110;12.138;2022-09-30T09:58:15;5.30;;;4.90;;
16480;SDS011;44634;54.110;12.138;2022-09-30T10:00:43;4.87;;;4.50;;
16480;SDS011;44634;54.110;12.138;2022-09-30T10:03:44;4.87;;;4.53;;
16480;SDS011;44634;54.110;12.138;2022-09-30T10:06:13;3.63;;;3.53;;
16480;SDS011;44634;54.110;12.138;2022-09-30T10:08:52;3.03;;;2.93;;
16480;SDS011;44634;54.110;12.138;2022-09-30T10:11:23;3.40;;;3.20;;
16480;SDS011;44634;54.110;12.138;2022-09-30T10:13:53;3.40;;;3.20;;
16480;SDS011;44634;54.110;12.138;2022-09-30T10:16:25;3.30;;;3.10;;
16480;SDS011;44634;54.110;12.138;2022-09-30T10:18:57;2.93;;;2.73;;
16480;SDS011;44634;54.110;12.138;2022-09-30T10:21:26;3.47;;;3.17;;
16480;SDS011;44634;54.110;12.138;2022-09-30T10:23:55;3.77;;;3.57;;
16480;SDS011;44634;54.110;12.138;2022-09-30T10:26:26;3.93;;;3.73;;
16480;SDS011;44634;54.110;12.138;2022-09-30T10:28:55;4.20;;;3.90;;
16480;SDS011;44634;54.110;12.138;2022-09-30T10:31:24;4.83;;;4.53;;
16480;SDS011;44634;54.110;12.138;2022-09-30T10:33:56;4.33;;;4.13;;
16480;SDS011;44634;54.110;12.138;2022-09-30T10:36:30;3.70;;;3.60;;
16480;SDS011;44634;54.110;12.138;2022-09-30T10:39:00;4.77;;;4.47;;
16480;SDS011;44634;54.110;12.138;2022-09-30T10:41:34;4.20;;;4.00;;
16480;SDS011;44634;54.110;12.138;2022-09-30T10:44:05;3.43;;;3.33;;
16480;SDS011;44634;54.110;12.138;2022-09-30T10:46:40;3.73;;;3.47;;
16480;SDS011;44634;54.110;12.138;2022-09-30T10:49:13;2.57;;;2.47;;
16480;SDS011;44634;54.110;12.138;2022-09-30T10:51:52;2.73;;;2.50;;
16480;SDS011;44634;54.110;12.138;2022-09-30T10:54:33;2.63;;;2.53;;
16480;SDS011;44634;54.110;12.138;2022-09-30T10:57:14;2.30;;;2.30;;
16480;SDS011;44634;54.110;12.138;2022-09-30T10:59:45;2.40;;;2.30;;
16480;SDS011;44634;54.110;12.138;2022-09-30T11:02:19;2.70;;;2.50;;
16480;SDS011;44634;54.110;12.138;2022-09-30T11:04:55;2.63;;;2.43;;
16480;SDS011;44634;54.110;12.138;2022-09-30T11:07:29;2.20;;;2.10;;
16480;SDS011;44634;54.110;12.138;2022-09-30T11:10:01;2.40;;;2.30;;
16480;SDS011;44634;54.110;12.138;2022-09-30T11:12:37;2.57;;;1.90;;
16480;SDS011;44634;54.110;12.138;2022-09-30T11:15:12;1.93;;;1.90;;
16480;SDS011;44634;54.110;12.138;2022-09-30T11:17:48;2.10;;;2.00;;
16480;SDS011;44634;54.110;12.138;2022-09-30T11:20:20;1.40;;;1.40;;
16480;SDS011;44634;54.110;12.138;2022-09-30T11:22:52;1.70;;;1.70;;
16480;SDS011;44634;54.110;12.138;2022-09-30T11:25:27;1.97;;;1.97;;
16480;SDS011;44634;54.110;12.138;2022-09-30T11:28:10;2.10;;;2.00;;
16480;SDS011;44634;54.110;12.138;2022-09-30T11:30:48;2.37;;;2.20;;
16480;SDS011;44634;54.110;12.138;2022-09-30T11:33:26;2.83;;;2.30;;
16480;SDS011;44634;54.110;12.138;2022-09-30T11:36:03;2.03;;;1.90;;
16480;SDS011;44634;54.110;12.138;2022-09-30T11:38:46;2.40;;;2.30;;
16480;SDS011;44634;54.110;12.138;2022-09-30T11:41:28;2.40;;;2.33;;
16480;SDS011;44634;54.110;12.138;2022-09-30T11:44:03;2.53;;;2.43;;
16480;SDS011;44634;54.110;12.138;2022-09-30T11:46:54;3.10;;;2.87;;
16480;SDS011;44634;54.110;12.138;2022-09-30T11:52:26;2.30;;;2.03;;
16480;SDS011;44634;54.110;12.138;2022-09-30T11:55:11;2.20;;;2.00;;
16480;SDS011;44634;54.110;12.138;2022-09-30T11:57:49;2.10;;;2.10;;
16480;SDS011;44634;54.110;12.138;2022-09-30T12:00:45;2.43;;;2.33;;
16480;SDS011;44634;54.110;12.138;2022-09-30T12:03:17;2.60;;;2.50;;
16480;SDS011;44634;54.110;12.138;2022-09-30T12:05:50;2.30;;;2.30;;
16480;SDS011;44634;54.110;12.138;2022-09-30T12:08:22;2.13;;;2.03;;
16480;SDS011;44634;54.110;12.138;2022-09-30T12:10:54;2.30;;;2.20;;
16480;SDS011;44634;54.110;12.138;2022-09-30T12:13:26;1.90;;;1.90;;
16480;SDS011;44634;54.110;12.138;2022-09-30T12:15:58;1.90;;;1.80;;
16480;SDS011;44634;54.110;12.138;2022-09-30T12:18:31;2.30;;;2.10;;
16480;SDS011;44634;54.110;12.138;2022-09-30T12:21:07;3.13;;;2.30;;
16480;SDS011;44634;54.110;12.138;2022-09-30T12:23:44;1.90;;;1.80;;
16480;SDS011;44634;54.110;12.138;2022-09-30T12:26:15;2.17;;;2.03;;
16480;SDS011;44634;54.110;12.138;2022-09-30T12:28:44;1.70;;;1.70;;
16480;SDS011;44634;54.110;12.138;2022-09-30T12:31:47;1.70;;;1.67;;
16480;SDS011;44634;54.110;12.138;2022-09-30T12:34:30;2.07;;;2.00;;
16480;SDS011;44634;54.110;12.138;2022-09-30T12:37:20;2.63;;;2.53;;
16480;SDS011;44634;54.110;12.138;2022-09-30T12:40:10;2.60;;;2.50;;
16480;SDS011;44634;54.110;12.138;2022-09-30T12:46:00;2.40;;;2.30;;
16480;SDS011;44634;54.110;12.138;2022-09-30T12:48:41;5.20;;;2.60;;
16480;SDS011;44634;54.110;12.138;2022-09-30T12:51:20;2.83;;;2.63;;
16480;SDS011;44634;54.110;12.138;2022-09-30T12:53:54;2.40;;;2.27;;
16480;SDS011;44634;54.110;12.138;2022-09-30T12:56:25;2.57;;;2.47;;
16480;SDS011;44634;54.110;12.138;2022-09-30T12:58:56;2.00;;;1.90;;
16480;SDS011;44634;54.110;12.138;2022-09-30T13:01:26;2.50;;;2.30;;
16480;SDS011;44634;54.110;12.138;2022-09-30T13:04:16;2.43;;;2.33;;
16480;SDS011;44634;54.110;12.138;2022-09-30T13:07:16;2.30;;;2.20;;
16480;SDS011;44634;54.110;12.138;2022-09-30T13:09:55;1.93;;;1.90;;
16480;SDS011;44634;54.110;12.138;2022-09-30T13:12:26;1.77;;;1.77;;
16480;SDS011;44634;54.110;12.138;2022-09-30T13:15:21;2.00;;;2.00;;
16480;SDS011;44634;54.110;12.138;2022-09-30T13:21:18;2.97;;;1.90;;
16480;SDS011;44634;54.110;12.138;2022-09-30T13:23:48;1.73;;;1.63;;
16480;SDS011;44634;54.110;12.138;2022-09-30T13:32:29;1.93;;;1.83;;
16480;SDS011;44634;54.110;12.138;2022-09-30T13:34:58;2.70;;;2.50;;
16480;SDS011;44634;54.110;12.138;2022-09-30T13:37:31;2.50;;;2.40;;
16480;SDS011;44634;54.110;12.138;2022-09-30T13:40:12;2.70;;;2.50;;
16480;SDS011;44634;54.110;12.138;2022-09-30T13:42:58;2.70;;;2.60;;
16480;SDS011;44634;54.110;12.138;2022-09-30T13:45:30;3.03;;;2.80;;
16480;SDS011;44634;54.110;12.138;2022-09-30T13:48:06;2.17;;;2.07;;
16480;SDS011;44634;54.110;12.138;2022-09-30T13:50:44;2.93;;;2.10;;
16480;SDS011;44634;54.110;12.138;2022-09-30T13:53:18;2.83;;;2.13;;
16480;SDS011;44634;54.110;12.138;2022-09-30T13:55:52;2.40;;;2.30;;
16480;SDS011;44634;54.110;12.138;2022-09-30T13:58:28;2.23;;;2.23;;
16480;SDS011;44634;54.110;12.138;2022-09-30T14:01:24;2.37;;;2.27;;
16480;SDS011;44634;54.110;12.138;2022-09-30T14:04:12;2.70;;;2.50;;
16480;SDS011;44634;54.110;12.138;2022-09-30T14:07:02;2.60;;;2.43;;
16480;SDS011;44634;54.110;12.138;2022-09-30T14:09:48;3.10;;;2.90;;
16480;SDS011;44634;54.110;12.138;2022-09-30T14:12:40;3.33;;;3.00;;
16480;SDS011;44634;54.110;12.138;2022-09-30T14:15:43;2.53;;;2.40;;
16480;SDS011;44634;54.110;12.138;2022-09-30T14:21:34;3.37;;;3.03;;
16480;SDS011;44634;54.110;12.138;2022-09-30T14:24:08;3.10;;;2.90;;
16480;SDS011;44634;54.110;12.138;2022-09-30T14:26:47;3.20;;;2.90;;
16480;SDS011;44634;54.110;12.138;2022-09-30T14:29:33;3.00;;;2.90;;
16480;SDS011;44634;54.110;12.138;2022-09-30T14:32:11;3.07;;;2.87;;
16480;SDS011;44634;54.110;12.138;2022-09-30T14:34:44;3.90;;;3.50;;
16480;SDS011;44634;54.110;12.138;2022-09-30T14:37:14;4.37;;;3.33;;
16480;SDS011;44634;54.110;12.138;2022-09-30T14:39:47;4.30;;;4.03;;
16480;SDS011;44634;54.110;12.138;2022-09-30T14:42:18;4.90;;;4.50;;
16480;SDS011;44634;54.110;12.138;2022-09-30T14:44:55;4.70;;;4.40;;
16480;SDS011;44634;54.110;12.138;2022-09-30T14:47:30;4.30;;;4.00;;
16480;SDS011;44634;54.110;12.138;2022-09-30T14:49:59;4.57;;;4.17;;
16480;SDS011;44634;54.110;12.138;2022-09-30T14:52:36;3.97;;;3.77;;
16480;SDS011;44634;54.110;12.138;2022-09-30T14:55:21;3.63;;;3.53;;
16480;SDS011;44634;54.110;12.138;2022-09-30T14:57:54;4.27;;;3.93;;
16480;SDS011;44634;54.110;12.138;2022-09-30T15:00:43;3.97;;;3.67;;
16480;SDS011;44634;54.110;12.138;2022-09-30T15:03:14;4.80;;;3.63;;
16480;SDS011;44634;54.110;12.138;2022-09-30T15:05:42;4.00;;;3.77;;
16480;SDS011;44634;54.110;12.138;2022-09-30T15:08:10;4.13;;;3.90;;
16480;SDS011;44634;54.110;12.138;2022-09-30T15:10:42;4.10;;;3.80;;
16480;SDS011;44634;54.110;12.138;2022-09-30T15:13:15;3.90;;;3.70;;
16480;SDS011;44634;54.110;12.138;2022-09-30T15:15:44;3.80;;;3.53;;
16480;SDS011;44634;54.110;12.138;2022-09-30T15:18:25;5.40;;;4.10;;
16480;SDS011;44634;54.110;12.138;2022-09-30T15:20:56;5.30;;;3.43;;
16480;SDS011;44634;54.110;12.138;2022-09-30T15:23:27;3.13;;;3.03;;
16480;SDS011;44634;54.110;12.138;2022-09-30T15:25:57;3.47;;;3.27;;
16480;SDS011;44634;54.110;12.138;2022-09-30T15:28:27;3.60;;;3.40;;